PANT METAR and TAF weather

Enter ICAO airport designator
Station Type Date Time Source
PANT METAR 2019/08/17 10:53 UTC NOAA

PANT 171053Z AUTO 30003KT 10SM SCT043 OVC050 17/14 A2997 RMK SLP147 T01670139 TSNO VIA AUTODIAL


Station Type Date Time Source
PANT Decoded METAR 2019/08/17 10:53 UTC NOAA

Station name not available
Aug 17, 2019 - 06:53 AM EDT / 2019.08.17 1053 UTC
Wind: from the WNW (300 degrees) at 3 MPH (3 KT):0
Visibility: 10 mile(s):0
Sky conditions: overcast
Temperature: 62.1 F (16.7 C)
Dew Point: 57.0 F (13.9 C)
Relative Humidity: 83%
Pressure (altimeter): 29.97 in. Hg (1014 hPa)
ob: PANT 171053Z AUTO 30003KT 10SM SCT043 OVC050 17/14 A2997 RMK SLP147 T01670139 TSNO VIA AUTODIAL
cycle: 11

Station Type Date Time Source
PANT TAF UTC NOAA

Error!

Example: see airport list